Terminal Aerodrome Forecast
Issued by NWS Caribou, ME

Home | Current Version | Previous Version | Text Only | Print | Product List | Glossary On
Versions: 1 2 3 4 5 6 7 8 9 10 11 12 13 14 15 16
000
FTUS41 KCAR 232300
TAFBGR
TAF
KBGR 232320Z 2400/2424 24004KT P6SM -SHRA OVC040
     FM240400 VRB03KT 6SM -SHRA BKN025
     FM240600 35005KT 6SM -SHRA BKN005
     FM241200 01007KT P6SM BKN008
     FM241400 01007KT P6SM BKN060
     FM242000 VRB03KT P6SM BKN250=

USA.gov is the U.S. government's official web portal to all federal, state and local government web resources and services.